createdAt,value
2023-01-07T00:00:39.218Z,75.83
2023-01-07T00:05:41.275Z,76.02
2023-01-07T00:10:43.104Z,76.40
2023-01-07T00:15:44.998Z,75.87
2023-01-07T00:20:46.928Z,75.92
2023-01-07T00:25:48.947Z,75.42
2023-01-07T00:30:50.818Z,75.43
2023-01-07T00:36:01.761Z,76.19
2023-01-07T00:41:03.851Z,75.83
2023-01-07T00:46:09.061Z,75.97
2023-01-07T00:51:14.576Z,75.36
2023-01-07T00:56:16.862Z,75.32
2023-01-07T01:01:18.878Z,75.46
2023-01-07T01:06:20.877Z,75.52
2023-01-07T01:11:22.717Z,75.59
2023-01-07T01:16:24.680Z,75.54
2023-01-07T01:21:26.617Z,74.99
2023-01-07T01:26:28.476Z,75.46
2023-01-07T01:31:30.286Z,74.88
2023-01-07T01:36:32.165Z,75.26
2023-01-07T01:41:34.145Z,74.99
2023-01-07T01:46:40.263Z,75.19
2023-01-07T01:51:42.454Z,74.43
2023-01-07T01:56:45.272Z,74.56
2023-01-07T02:01:47.204Z,74.66
2023-01-07T02:07:14.075Z,74.82
2023-01-07T02:12:39.118Z,74.77
2023-01-07T02:17:43.996Z,74.78
2023-01-07T02:23:00.829Z,74.79
2023-01-07T02:28:16.207Z,74.65
2023-01-07T02:33:38.737Z,74.91
2023-01-07T02:39:07.706Z,74.88
2023-01-07T02:44:30.373Z,74.67
2023-01-07T02:49:32.243Z,74.63
2023-01-07T02:54:34.095Z,74.44
2023-01-07T03:00:03.041Z,74.37
2023-01-07T03:05:13.302Z,74.43
2023-01-07T03:10:25.638Z,74.08
2023-01-07T03:15:50.308Z,75.08
2023-01-07T03:20:55.054Z,75.29
2023-01-07T03:26:01.248Z,74.48
2023-01-07T03:31:03.087Z,74.86
2023-01-07T03:36:05.127Z,74.42
2023-01-07T03:41:07.033Z,74.33
2023-01-07T03:46:08.942Z,74.17
2023-01-07T03:51:10.924Z,74.75
2023-01-07T03:56:12.857Z,74.38
2023-01-07T04:01:14.852Z,74.21
2023-01-07T04:06:16.827Z,74.30
2023-01-07T04:11:18.693Z,74.15
2023-01-07T04:16:20.791Z,74.54
2023-01-07T04:21:22.713Z,74.11
2023-01-07T04:26:24.620Z,74.69
2023-01-07T04:31:26.694Z,74.40
2023-01-07T04:36:29.049Z,74.47
2023-01-07T04:41:30.870Z,74.55
2023-01-07T04:46:32.862Z,74.28
2023-01-07T04:51:34.912Z,74.24
2023-01-07T04:56:36.805Z,74.02
2023-01-07T05:01:38.791Z,74.02
2023-01-07T05:06:40.714Z,73.86
2023-01-07T05:11:42.746Z,73.97
2023-01-07T05:16:44.643Z,74.16
2023-01-07T05:21:46.531Z,74.14
2023-01-07T05:26:48.387Z,73.49
2023-01-07T05:31:50.422Z,73.57
2023-01-07T05:36:52.305Z,73.60
2023-01-07T05:41:54.193Z,73.54
2023-01-07T05:46:56.091Z,74.03
2023-01-07T05:51:58.047Z,74.12
2023-01-07T05:57:00.039Z,74.22
2023-01-07T06:02:02.266Z,73.83
2023-01-07T06:07:04.185Z,73.27
2023-01-07T06:12:06.280Z,73.65
2023-01-07T06:17:08.192Z,73.82
2023-01-07T06:22:10.139Z,73.48
2023-01-07T06:27:12.213Z,73.80
2023-01-07T06:32:14.157Z,73.37
2023-01-07T06:37:16.105Z,73.44
2023-01-07T06:42:17.924Z,73.25
2023-01-07T06:47:19.883Z,73.39
2023-01-07T06:52:21.763Z,74.01
2023-01-07T06:57:23.676Z,73.70
2023-01-07T07:02:26.701Z,73.21
2023-01-07T07:07:28.731Z,73.06
2023-01-07T07:12:30.663Z,73.46
2023-01-07T07:17:32.574Z,72.82
2023-01-07T07:22:34.464Z,73.32
2023-01-07T07:27:36.312Z,73.53
2023-01-07T07:32:38.219Z,73.23
2023-01-07T07:37:40.153Z,73.78
2023-01-07T07:43:10.284Z,72.76
2023-01-07T07:48:06.029Z,72.36
2023-01-07T07:53:08.222Z,72.92
2023-01-07T07:58:10.249Z,72.93
2023-01-07T08:03:12.354Z,72.56
2023-01-07T08:08:14.440Z,72.29
2023-01-07T08:13:16.538Z,72.31
2023-01-07T08:18:18.536Z,72.15
2023-01-07T08:23:20.565Z,72.12
2023-01-07T08:28:22.501Z,72.03
2023-01-07T08:33:24.408Z,71.80
2023-01-07T08:38:26.384Z,71.39
2023-01-07T08:43:28.363Z,72.04
2023-01-07T08:48:30.265Z,72.37
2023-01-07T08:53:32.341Z,71.00
2023-01-07T08:58:34.526Z,71.23
2023-01-07T09:03:36.439Z,71.24
2023-01-07T09:08:38.374Z,71.63
2023-01-07T09:13:40.241Z,71.62
2023-01-07T09:18:42.074Z,71.34
2023-01-07T09:23:43.959Z,71.07
2023-01-07T09:28:46.054Z,71.08
2023-01-07T09:33:48.064Z,71.25
2023-01-07T09:38:49.934Z,71.08
2023-01-07T09:44:00.306Z,71.00
2023-01-07T09:49:03.755Z,71.04
2023-01-07T09:54:06.265Z,70.62
2023-01-07T09:59:10.823Z,71.14
2023-01-07T10:04:31.098Z,70.83
2023-01-07T10:09:53.832Z,70.43
2023-01-07T10:15:01.582Z,70.60
2023-01-07T10:20:15.252Z,71.25
2023-01-07T10:25:20.619Z,71.06
2023-01-07T10:30:24.379Z,71.27
2023-01-07T10:35:26.243Z,70.93
2023-01-07T10:40:31.027Z,69.77
2023-01-07T10:45:44.822Z,69.91
2023-01-07T10:51:04.504Z,69.97
2023-01-07T10:56:38.171Z,69.09
2023-01-07T11:01:40.616Z,69.32
2023-01-07T11:07:20.868Z,70.19
2023-01-07T11:12:39.735Z,70.03
2023-01-07T11:17:46.207Z,69.56
2023-01-07T11:22:48.019Z,69.42
2023-01-07T11:27:49.938Z,69.53
2023-01-07T11:33:00.765Z,69.42
2023-01-07T11:38:02.572Z,69.56
2023-01-07T11:43:15.730Z,69.27
2023-01-07T11:48:26.561Z,69.09
2023-01-07T11:53:36.237Z,68.92
2023-01-07T11:58:48.582Z,68.44
2023-01-07T12:03:53.512Z,69.52
2023-01-07T12:09:15.475Z,69.16
2023-01-07T12:14:23.543Z,68.94
2023-01-07T12:19:32.266Z,69.11
2023-01-07T12:24:52.535Z,69.26
2023-01-07T12:30:20.831Z,69.21
2023-01-07T12:35:28.018Z,69.39
2023-01-07T12:40:41.063Z,69.85
2023-01-07T12:45:56.185Z,69.67
2023-01-07T12:50:58.219Z,69.62
2023-01-07T12:56:39.517Z,69.72
2023-01-07T13:01:57.666Z,69.87
2023-01-07T13:07:10.077Z,70.52
2023-01-07T13:12:40.629Z,70.55
2023-01-07T13:17:36.607Z,71.39
2023-01-07T13:22:42.712Z,70.88
2023-01-07T13:27:59.584Z,71.54
2023-01-07T13:33:24.801Z,72.13
2023-01-07T13:38:41.853Z,72.44
2023-01-07T13:44:03.520Z,71.49
2023-01-07T13:49:05.369Z,71.57
2023-01-07T13:54:11.608Z,72.01
2023-01-07T13:59:30.734Z,72.42
2023-01-07T14:04:59.138Z,72.13
2023-01-07T14:10:00.961Z,72.85
2023-01-07T14:15:17.031Z,72.67
2023-01-07T14:20:38.994Z,72.49
2023-01-07T14:25:59.410Z,73.45
2023-01-07T14:31:01.211Z,72.79
2023-01-07T14:36:07.799Z,72.82
2023-01-07T14:41:14.431Z,72.71
2023-01-07T14:46:25.185Z,72.97
2023-01-07T14:51:35.518Z,72.78
2023-01-07T14:56:50.472Z,73.02
2023-01-07T15:02:13.392Z,73.06
2023-01-07T15:07:23.538Z,73.30
2023-01-07T15:12:27.826Z,73.23
2023-01-07T15:17:29.667Z,73.24
2023-01-07T15:22:46.609Z,73.91
2023-01-07T15:27:51.199Z,73.76
2023-01-07T15:33:20.711Z,74.02
2023-01-07T15:38:37.681Z,73.98
2023-01-07T15:43:39.659Z,74.30
2023-01-07T15:48:41.566Z,73.63
2023-01-07T15:53:45.029Z,74.01
2023-01-07T15:58:46.936Z,74.19
2023-01-07T16:03:50.117Z,74.35
2023-01-07T16:08:52.079Z,73.99
2023-01-07T16:14:01.895Z,74.15
2023-01-07T16:19:03.887Z,74.56
2023-01-07T16:24:07.527Z,74.75
2023-01-07T16:29:11.593Z,74.68
2023-01-07T16:34:25.539Z,74.80
2023-01-07T16:39:31.635Z,75.00
2023-01-07T16:44:42.610Z,74.71
2023-01-07T16:49:45.618Z,74.64
2023-01-07T16:54:50.926Z,75.17
2023-01-07T16:59:54.188Z,74.98
2023-01-07T17:05:10.632Z,75.14
2023-01-07T17:10:40.339Z,75.35
2023-01-07T17:15:43.491Z,74.96
2023-01-07T17:20:49.267Z,74.96
2023-01-07T17:26:06.016Z,74.62
2023-01-07T17:31:08.763Z,75.19
2023-01-07T17:36:18.448Z,75.01
2023-01-07T17:41:22.187Z,75.01
2023-01-07T17:46:24.386Z,75.20
2023-01-07T17:51:27.220Z,75.09
2023-01-07T17:56:28.979Z,74.95
2023-01-07T18:01:30.866Z,74.98
2023-01-07T18:06:32.756Z,74.95
2023-01-07T18:11:39.679Z,75.61
2023-01-07T18:16:41.769Z,75.38
2023-01-07T18:21:43.641Z,75.49
2023-01-07T18:26:45.753Z,75.74
2023-01-07T18:31:47.699Z,76.13
2023-01-07T18:36:49.561Z,75.75
2023-01-07T18:41:51.504Z,76.23
2023-01-07T18:46:53.374Z,76.28
2023-01-07T18:51:55.867Z,76.64
2023-01-07T18:56:57.729Z,76.98
2023-01-07T19:01:59.944Z,76.32
2023-01-07T19:07:03.571Z,76.87
2023-01-07T19:12:06.246Z,76.91
2023-01-07T19:17:08.240Z,77.03
2023-01-07T19:22:10.627Z,77.54
2023-01-07T19:27:12.519Z,78.02
2023-01-07T19:32:14.380Z,78.07
2023-01-07T19:37:16.267Z,77.91
2023-01-07T19:42:18.289Z,78.48
2023-01-07T19:47:20.161Z,78.27
2023-01-07T19:52:22.052Z,78.18
2023-01-07T19:57:23.906Z,78.09
2023-01-07T20:02:25.989Z,78.02
2023-01-07T20:07:28.038Z,77.78
2023-01-07T20:12:29.917Z,78.16
2023-01-07T20:17:31.753Z,78.37
2023-01-07T20:22:34.206Z,78.58
2023-01-07T20:27:36.194Z,78.36
2023-01-07T20:32:38.079Z,78.51
2023-01-07T20:37:40.149Z,78.89
2023-01-07T20:42:42.174Z,78.79
2023-01-07T20:47:43.999Z,78.65
2023-01-07T20:52:45.838Z,78.32
2023-01-07T20:57:47.703Z,78.34
2023-01-07T21:02:49.645Z,78.59
2023-01-07T21:07:51.781Z,78.41
2023-01-07T21:12:53.747Z,78.08
2023-01-07T21:17:55.660Z,78.69
2023-01-07T21:22:57.501Z,77.94
2023-01-07T21:27:59.363Z,78.32
2023-01-07T21:33:01.244Z,78.40
2023-01-07T21:38:03.175Z,78.62
2023-01-07T21:43:05.051Z,78.82
2023-01-07T21:48:06.900Z,78.22
2023-01-07T21:53:08.776Z,78.26
2023-01-07T21:58:10.619Z,78.04
2023-01-07T22:03:12.418Z,78.52
2023-01-07T22:08:14.332Z,78.58
2023-01-07T22:13:16.172Z,78.51
2023-01-07T22:18:18.051Z,78.95
2023-01-07T22:23:20.025Z,78.59
2023-01-07T22:28:22.286Z,78.64
2023-01-07T22:33:24.146Z,78.45
2023-01-07T22:38:26.095Z,78.59
2023-01-07T22:43:27.991Z,78.30
2023-01-07T22:48:32.269Z,78.87
2023-01-07T22:53:34.168Z,78.49
2023-01-07T22:58:36.197Z,78.52
2023-01-07T23:03:38.272Z,78.28
2023-01-07T23:08:40.485Z,78.75
2023-01-07T23:13:42.339Z,78.52
2023-01-07T23:18:44.271Z,78.58
2023-01-07T23:23:46.130Z,78.72
2023-01-07T23:28:47.975Z,78.63
2023-01-07T23:33:49.828Z,78.43
2023-01-07T23:38:52.054Z,78.60
2023-01-07T23:43:54.042Z,78.42
2023-01-07T23:48:55.914Z,78.06
2023-01-07T23:53:57.807Z,78.05
2023-01-07T23:59:02.141Z,78.06
